Lesterville, Missouri
Current Conditions -  °F | °C
As of 12:35 AM on Saturday 20 Dec 2014 (Local Time) from KFAM Reporting Station
Overcast Overcast  
Wind Chill: 34°   Ceiling: 4000
Heat Index: 34°   Visibility: 7mi
Dew Point: 32°   Wind: 0mph
Humidity: 93%   Direction: NA
Pressure: 30.25"   Gusts: NA
Location:  37.45°N, 90.84°W
Report Text: KFAM 200635Z AUTO 00000KT 7SM OVC040 01/00 A3025 RMK AO1
Loading
Personal Weather Stations






























Interactive Weather Map New forecast layout! Learn more

10-Day Weather Forecast

Advertisements
Track Severe Weather on mobile